Check out our new BloomSky Weather System.

Active alerts


No alerts


Thunder radar  blitzortung!


Rain radar more information rain snow radar


Visit our other weather sites:

Template documentation
and downloads

And another site



Weather Underground History page Text

Daily Summary for September 29, 2017 Units:  English    Metric   Both
« Previous Day
Next Day »
Daily Weekly Monthly Yearly Custom
  High: Low: Average:
Temperature: 90.1 °F 73.8 °F 80.7 °F
Dew Point: 75.6 °F 66.6 °F 72.4 °F
Humidity: 98 % 56 % 77 %
Wind Speed: 8.0 mph 0.0 mph 1.7 mph
Wind Gust: 13.0 mph - -
Wind:- - SW
Pressure: 30.04 in 29.95 in -
Precipitation: 0.00 in    
Historical Graphs
 
 
Tabular Data for September 29, 2017
Time Temperature Dew Point Pressure Wind Wind Speed Wind Gust Humidity Rainfall Rate (Hourly)
00:02 75.9 °F 74.7 °F 29.97 in Calm   2.0 mph 96 % 0.00 in
00:07 75.9 °F 74.7 °F 29.97 in Calm   1.0 mph 96 % 0.00 in
00:12 75.7 °F 74.5 °F 29.97 in Calm   1.0 mph 96 % 0.00 in
00:17 75.9 °F 74.7 °F 29.97 in WNW 1.0 mph 1.0 mph 96 % 0.00 in
00:22 75.9 °F 74.7 °F 29.97 in West 1.0 mph 1.0 mph 96 % 0.00 in
00:27 75.9 °F 74.7 °F 29.97 in Calm   1.0 mph 96 % 0.00 in
00:32 75.9 °F 74.7 °F 29.97 in NW 2.0 mph 2.0 mph 96 % 0.00 in
00:37 75.9 °F 74.7 °F 29.97 in NW 1.0 mph 3.0 mph 96 % 0.00 in
00:42 75.9 °F 74.7 °F 29.97 in NW 1.0 mph 3.0 mph 96 % 0.00 in
00:47 75.9 °F 74.7 °F 29.97 in NW 2.0 mph 3.0 mph 96 % 0.00 in
00:52 75.7 °F 74.5 °F 29.97 in NW 1.0 mph 2.0 mph 96 % 0.00 in
00:58 75.7 °F 74.5 °F 29.97 in WNW 1.0 mph 2.0 mph 96 % 0.00 in
01:03 75.9 °F 74.7 °F 29.97 in NW 2.0 mph 4.0 mph 96 % 0.00 in
01:13 75.9 °F 74.7 °F 29.97 in NW 1.0 mph 4.0 mph 96 % 0.00 in
01:18 75.9 °F 74.7 °F 29.97 in NW 1.0 mph 4.0 mph 96 % 0.00 in
01:23 75.9 °F 74.7 °F 29.97 in Calm   4.0 mph 96 % 0.00 in
01:28 75.9 °F 74.7 °F 29.97 in NW 2.0 mph 4.0 mph 96 % 0.00 in
01:33 75.9 °F 74.7 °F 29.97 in NW 2.0 mph 4.0 mph 96 % 0.00 in
01:38 75.9 °F 74.7 °F 29.97 in Calm   3.0 mph 96 % 0.00 in
01:43 75.7 °F 74.5 °F 29.97 in NNW 2.0 mph 3.0 mph 96 % 0.00 in
01:48 75.7 °F 74.5 °F 29.97 in NNW 3.0 mph 4.0 mph 96 % 0.00 in
01:53 75.7 °F 74.5 °F 29.97 in NW 2.0 mph 4.0 mph 96 % 0.00 in
01:58 75.7 °F 74.5 °F 29.97 in Calm   5.0 mph 96 % 0.00 in
02:03 75.7 °F 74.5 °F 29.97 in NNW 1.0 mph 5.0 mph 96 % 0.00 in
02:08 75.7 °F 74.8 °F 29.97 in Calm   5.0 mph 97 % 0.00 in
02:13 75.7 °F 74.8 °F 29.97 in Calm   4.0 mph 97 % 0.00 in
02:18 75.6 °F 74.7 °F 29.97 in Calm   2.0 mph 97 % 0.00 in
02:23 75.6 °F 74.7 °F 29.97 in NW 1.0 mph 2.0 mph 97 % 0.00 in
02:28 75.6 °F 74.7 °F 29.97 in Calm   2.0 mph 97 % 0.00 in
02:33 75.6 °F 74.7 °F 29.97 in Calm   1.0 mph 97 % 0.00 in
02:38 75.6 °F 74.7 °F 29.97 in NNW 1.0 mph 2.0 mph 97 % 0.00 in
02:43 75.4 °F 74.5 °F 29.96 in Calm   2.0 mph 97 % 0.00 in
02:48 75.4 °F 74.5 °F 29.96 in Calm   2.0 mph 97 % 0.00 in
02:53 75.4 °F 74.5 °F 29.96 in Calm   1.0 mph 97 % 0.00 in
02:58 75.4 °F 74.5 °F 29.96 in Calm   1.0 mph 97 % 0.00 in
03:03 75.2 °F 74.7 °F 29.96 in WNW 1.0 mph 1.0 mph 98 % 0.00 in
03:08 75.2 °F 74.7 °F 29.97 in NW 1.0 mph 1.0 mph 98 % 0.00 in
03:13 75.4 °F 74.8 °F 29.97 in Calm   1.0 mph 98 % 0.00 in
03:18 75.2 °F 74.7 °F 29.97 in Calm   2.0 mph 98 % 0.00 in
03:24 75.4 °F 74.8 °F 29.96 in Calm   2.0 mph 98 % 0.00 in
03:29 75.2 °F 74.3 °F 29.97 in NW 1.0 mph 2.0 mph 97 % 0.00 in
03:34 75.2 °F 74.3 °F 29.96 in Calm   1.0 mph 97 % 0.00 in
03:39 75.0 °F 74.1 °F 29.96 in Calm   1.0 mph 97 % 0.00 in
03:44 75.0 °F 74.1 °F 29.96 in Calm   1.0 mph 97 % 0.00 in
03:49 75.0 °F 74.1 °F 29.96 in Calm   1.0 mph 97 % 0.00 in
03:54 74.8 °F 73.9 °F 29.96 in NW 1.0 mph 2.0 mph 97 % 0.00 in
03:55 74.8 °F 73.6 °F 29.97 in Calm   2.0 mph 96 % 0.00 in
04:00 75.0 °F 73.8 °F 29.97 in Calm   2.0 mph 96 % 0.00 in
04:05 75.0 °F 73.4 °F 29.96 in Calm   3.0 mph 95 % 0.00 in
04:10 75.0 °F 73.4 °F 29.97 in Calm   3.0 mph 95 % 0.00 in
04:15 75.0 °F 73.4 °F 29.96 in Calm   3.0 mph 95 % 0.00 in
04:20 75.0 °F 73.4 °F 29.97 in Calm   1.0 mph 95 % 0.00 in
04:25 75.0 °F 73.2 °F 29.97 in WNW 1.0 mph 3.0 mph 94 % 0.00 in
04:30 75.4 °F 73.2 °F 29.96 in NE 1.0 mph 6.0 mph 93 % 0.00 in
04:35 75.4 °F 73.2 °F 29.96 in Calm   6.0 mph 93 % 0.00 in
04:36 75.4 °F 73.2 °F 29.97 in NNW 1.0 mph 6.0 mph 93 % 0.00 in
04:41 75.4 °F 73.2 °F 29.96 in Calm   2.0 mph 93 % 0.00 in
04:46 75.4 °F 72.9 °F 29.97 in North 1.0 mph 2.0 mph 92 % 0.00 in
04:51 75.4 °F 72.9 °F 29.97 in WNW 1.0 mph 3.0 mph 92 % 0.00 in
04:56 75.4 °F 72.9 °F 29.97 in NNW 1.0 mph 4.0 mph 92 % 0.00 in
05:01 75.4 °F 72.9 °F 29.97 in NNW 2.0 mph 4.0 mph 92 % 0.00 in
05:06 75.2 °F 72.7 °F 29.97 in Calm   4.0 mph 92 % 0.00 in
05:11 75.0 °F 72.5 °F 29.97 in Calm   4.0 mph 92 % 0.00 in
05:21 75.0 °F 72.5 °F 29.97 in NW 1.0 mph 3.0 mph 92 % 0.00 in
05:26 74.8 °F 72.3 °F 29.97 in NW 1.0 mph 3.0 mph 92 % 0.00 in
05:27 74.8 °F 72.3 °F 29.97 in NE 1.0 mph 3.0 mph 92 % 0.00 in
05:32 74.8 °F 72.3 °F 29.97 in NNW 2.0 mph 3.0 mph 92 % 0.00 in
05:37 74.8 °F 72.3 °F 29.97 in NW 1.0 mph 3.0 mph 92 % 0.00 in
05:42 74.7 °F 72.1 °F 29.97 in Calm   3.0 mph 92 % 0.00 in
05:47 74.7 °F 72.5 °F 29.97 in Calm   3.0 mph 93 % 0.00 in
05:52 74.5 °F 72.3 °F 29.98 in North 1.0 mph 4.0 mph 93 % 0.00 in
05:57 74.5 °F 72.0 °F 29.98 in Calm   4.0 mph 92 % 0.00 in
06:02 74.5 °F 72.0 °F 29.98 in Calm   4.0 mph 92 % 0.00 in
06:07 74.5 °F 72.3 °F 29.98 in Calm   4.0 mph 93 % 0.00 in
06:12 74.3 °F 72.1 °F 29.98 in North 1.0 mph 4.0 mph 93 % 0.00 in
06:17 74.1 °F 71.6 °F 29.99 in ESE 1.0 mph 3.0 mph 92 % 0.00 in
06:22 74.1 °F 71.6 °F 29.99 in Calm   3.0 mph 92 % 0.00 in
06:27 74.1 °F 71.6 °F 29.99 in Calm   3.0 mph 92 % 0.00 in
06:32 74.1 °F 71.2 °F 29.99 in Calm   4.0 mph 91 % 0.00 in
06:37 74.1 °F 71.2 °F 29.99 in Calm   4.0 mph 91 % 0.00 in
06:42 74.1 °F 71.2 °F 29.99 in NW 1.0 mph 4.0 mph 91 % 0.00 in
06:47 74.1 °F 71.1 °F 29.99 in Calm   4.0 mph 90 % 0.00 in
06:52 74.1 °F 71.1 °F 29.99 in North 1.0 mph 5.0 mph 90 % 0.00 in
06:57 74.1 °F 71.1 °F 29.99 in Calm   5.0 mph 90 % 0.00 in
07:02 73.9 °F 70.9 °F 29.99 in NNE 1.0 mph 5.0 mph 90 % 0.00 in
07:07 73.9 °F 70.9 °F 29.99 in Calm   4.0 mph 90 % 0.00 in
07:12 73.8 °F 70.7 °F 30.00 in Calm   4.0 mph 90 % 0.00 in
07:17 73.8 °F 70.7 °F 30.00 in NNW 1.0 mph 4.0 mph 90 % 0.00 in
07:22 73.8 °F 70.7 °F 30.00 in Calm   4.0 mph 90 % 0.00 in
07:27 73.8 °F 70.7 °F 30.00 in North 1.0 mph 3.0 mph 90 % 0.00 in
07:32 73.8 °F 70.7 °F 30.00 in NW 1.0 mph 3.0 mph 90 % 0.00 in
07:37 73.8 °F 70.7 °F 30.00 in NNW 1.0 mph 4.0 mph 90 % 0.00 in
07:42 73.8 °F 70.7 °F 30.01 in Calm   4.0 mph 90 % 0.00 in
07:47 73.9 °F 70.5 °F 30.01 in Calm   4.0 mph 89 % 0.00 in
07:52 73.9 °F 70.5 °F 30.01 in Calm   3.0 mph 89 % 0.00 in
07:58 74.1 °F 70.7 °F 30.01 in NW 1.0 mph 5.0 mph 89 % 0.00 in
08:03 74.7 °F 70.9 °F 30.02 in NNW 1.0 mph 5.0 mph 88 % 0.00 in
08:08 75.0 °F 71.2 °F 30.02 in Calm   5.0 mph 88 % 0.00 in
08:13 75.4 °F 71.2 °F 30.02 in NW 1.0 mph 3.0 mph 87 % 0.00 in
08:18 75.6 °F 71.4 °F 30.02 in NNW 2.0 mph 5.0 mph 87 % 0.00 in
08:23 75.7 °F 71.2 °F 30.02 in NNW 1.0 mph 5.0 mph 86 % 0.00 in
08:28 75.9 °F 71.1 °F 30.02 in ENE 1.0 mph 5.0 mph 85 % 0.00 in
08:33 76.5 °F 71.6 °F 30.03 in Calm   6.0 mph 85 % 0.00 in
08:38 76.5 °F 71.2 °F 30.03 in ENE 4.0 mph 6.0 mph 84 % 0.00 in
08:43 76.6 °F 71.1 °F 30.03 in WNW 5.0 mph 6.0 mph 83 % 0.00 in
08:48 77.0 °F 71.4 °F 30.03 in NNW 1.0 mph 6.0 mph 83 % 0.00 in
08:53 77.2 °F 71.2 °F 30.03 in NE 3.0 mph 8.0 mph 82 % 0.00 in
08:58 77.2 °F 71.2 °F 30.03 in NNE 1.0 mph 9.0 mph 82 % 0.00 in
09:03 77.4 °F 71.1 °F 30.03 in NE 6.0 mph 9.0 mph 81 % 0.00 in
09:08 77.5 °F 70.9 °F 30.03 in North 7.0 mph 9.0 mph 80 % 0.00 in
09:10 77.5 °F 70.9 °F 30.03 in NNW 4.0 mph 8.0 mph 80 % 0.00 in
09:15 77.7 °F 71.1 °F 30.03 in NNW 1.0 mph 8.0 mph 80 % 0.00 in
09:20 78.1 °F 71.4 °F 30.03 in SW 1.0 mph 8.0 mph 80 % 0.00 in
09:25 78.6 °F 71.6 °F 30.03 in WNW 3.0 mph 7.0 mph 79 % 0.00 in
09:30 79.0 °F 71.6 °F 30.03 in NNW 5.0 mph 9.0 mph 78 % 0.00 in
09:31 79.0 °F 71.6 °F 30.03 in NNW 6.0 mph 9.0 mph 78 % 0.00 in
09:36 79.3 °F 72.0 °F 30.03 in ESE 2.0 mph 9.0 mph 78 % 0.00 in
09:41 79.7 °F 71.8 °F 30.03 in NNW 6.0 mph 9.0 mph 77 % 0.00 in
09:46 79.9 °F 72.0 °F 30.03 in SE 1.0 mph 8.0 mph 77 % 0.00 in
09:51 80.1 °F 71.8 °F 30.03 in ENE 2.0 mph 8.0 mph 76 % 0.00 in
09:56 79.7 °F 71.4 °F 30.03 in NNW 3.0 mph 8.0 mph 76 % 0.00 in
10:01 79.9 °F 72.0 °F 30.03 in NNW 2.0 mph 7.0 mph 77 % 0.00 in
10:03 79.9 °F 72.0 °F 30.03 in NNE 1.0 mph 7.0 mph 77 % 0.00 in
10:08 80.2 °F 72.0 °F 30.03 in ESE 5.0 mph 7.0 mph 76 % 0.00 in
10:14 80.8 °F 72.5 °F 30.04 in NW 1.0 mph 7.0 mph 76 % 0.00 in
10:19 81.0 °F 72.7 °F 30.04 in ENE 4.0 mph 7.0 mph 76 % 0.00 in
10:24 81.7 °F 73.0 °F 30.04 in NNW 4.0 mph 6.0 mph 75 % 0.00 in
10:29 82.0 °F 72.5 °F 30.04 in North 4.0 mph 6.0 mph 73 % 0.00 in
10:34 82.0 °F 72.9 °F 30.04 in Calm   8.0 mph 74 % 0.00 in
10:39 82.2 °F 72.3 °F 30.04 in ENE 2.0 mph 8.0 mph 72 % 0.00 in
10:44 82.6 °F 73.0 °F 30.04 in WNW 1.0 mph 8.0 mph 73 % 0.00 in
10:49 83.1 °F 73.2 °F 30.04 in NNW 2.0 mph 8.0 mph 72 % 0.00 in
10:54 82.9 °F 72.5 °F 30.04 in NW 2.0 mph 6.0 mph 71 % 0.00 in
10:59 83.1 °F 73.2 °F 30.04 in ENE 2.0 mph 6.0 mph 72 % 0.00 in
11:04 84.0 °F 73.6 °F 30.04 in WNW 1.0 mph 6.0 mph 71 % 0.00 in
11:09 84.7 °F 74.3 °F 30.04 in Calm   6.0 mph 71 % 0.00 in
11:14 84.9 °F 73.2 °F 30.03 in East 3.0 mph 4.0 mph 68 % 0.00 in
11:19 84.4 °F 73.6 °F 30.03 in ESE 2.0 mph 7.0 mph 70 % 0.00 in
11:24 84.4 °F 73.6 °F 30.03 in Calm   7.0 mph 70 % 0.00 in
11:29 84.9 °F 74.1 °F 30.03 in North 1.0 mph 7.0 mph 70 % 0.00 in
11:34 85.3 °F 73.9 °F 30.02 in NE 3.0 mph 7.0 mph 69 % 0.00 in
11:39 85.3 °F 73.9 °F 30.02 in ENE 4.0 mph 5.0 mph 69 % 0.00 in
11:44 85.5 °F 74.1 °F 30.02 in ENE 4.0 mph 6.0 mph 69 % 0.00 in
11:49 85.6 °F 74.3 °F 30.02 in NNW 3.0 mph 6.0 mph 69 % 0.00 in
11:54 85.6 °F 73.9 °F 30.02 in NNW 3.0 mph 6.0 mph 68 % 0.00 in
11:59 86.0 °F 74.1 °F 30.01 in North 5.0 mph 6.0 mph 68 % 0.00 in
12:04 86.2 °F 74.3 °F 30.02 in ENE 3.0 mph 6.0 mph 68 % 0.00 in
12:09 86.2 °F 75.2 °F 30.02 in ENE 2.0 mph 6.0 mph 70 % 0.00 in
12:14 86.7 °F 74.5 °F 30.01 in North 3.0 mph 6.0 mph 67 % 0.00 in
12:19 87.1 °F 74.8 °F 30.01 in NNW 2.0 mph 7.0 mph 67 % 0.00 in
12:24 87.3 °F 74.5 °F 30.01 in NNW 4.0 mph 7.0 mph 66 % 0.00 in
12:29 87.1 °F 74.3 °F 30.01 in WNW 2.0 mph 8.0 mph 66 % 0.00 in
12:34 87.3 °F 74.5 °F 30.01 in SE 1.0 mph 8.0 mph 66 % 0.00 in
12:39 88.0 °F 75.2 °F 30.01 in SSE 2.0 mph 8.0 mph 66 % 0.00 in
12:44 88.3 °F 75.6 °F 30.01 in ENE 4.0 mph 7.0 mph 66 % 0.00 in
12:49 88.3 °F 73.6 °F 30.01 in NNE 3.0 mph 6.0 mph 62 % 0.00 in
12:54 88.5 °F 74.8 °F 30.00 in ENE 2.0 mph 7.0 mph 64 % 0.00 in
12:59 88.5 °F 74.3 °F 30.00 in North 3.0 mph 7.0 mph 63 % 0.00 in
13:04 88.7 °F 73.9 °F 30.00 in NW 2.0 mph 7.0 mph 62 % 0.00 in
13:09 88.7 °F 73.9 °F 30.00 in NNE 1.0 mph 6.0 mph 62 % 0.00 in
13:14 88.9 °F 75.2 °F 30.00 in NNW 3.0 mph 6.0 mph 64 % 0.00 in
13:19 89.4 °F 73.8 °F 30.00 in NNW 3.0 mph 6.0 mph 60 % 0.00 in
13:24 89.4 °F 74.1 °F 29.99 in East 2.0 mph 6.0 mph 61 % 0.00 in
13:29 89.1 °F 73.4 °F 29.99 in NNE 7.0 mph 7.0 mph 60 % 0.00 in
13:34 88.2 °F 73.4 °F 29.99 in WNW 4.0 mph 8.0 mph 62 % 0.00 in
13:39 87.8 °F 73.2 °F 29.99 in NNE 4.0 mph 8.0 mph 62 % 0.00 in
13:44 87.6 °F 73.9 °F 29.99 in ENE 2.0 mph 9.0 mph 64 % 0.00 in
13:49 88.2 °F 73.9 °F 29.99 in North 2.0 mph 9.0 mph 63 % 0.00 in
13:54 88.5 °F 72.9 °F 29.99 in NE 4.0 mph 9.0 mph 60 % 0.00 in
13:59 88.3 °F 72.1 °F 29.99 in NNE 1.0 mph 9.0 mph 59 % 0.00 in
14:04 88.2 °F 72.5 °F 29.99 in NNW 1.0 mph 9.0 mph 60 % 0.00 in
14:09 88.3 °F 72.1 °F 29.98 in ESE 1.0 mph 9.0 mph 59 % 0.00 in
14:14 89.1 °F 73.9 °F 29.98 in NW 2.0 mph 11.0 mph 61 % 0.00 in
14:19 89.4 °F 73.8 °F 29.98 in Calm   11.0 mph 60 % 0.00 in
14:24 89.1 °F 72.3 °F 29.98 in NNE 2.0 mph 11.0 mph 58 % 0.00 in
14:29 88.2 °F 72.0 °F 29.98 in NE 1.0 mph 8.0 mph 59 % 0.00 in
14:34 88.5 °F 72.9 °F 29.98 in East 4.0 mph 8.0 mph 60 % 0.00 in
14:39 89.1 °F 72.3 °F 29.97 in North 6.0 mph 8.0 mph 58 % 0.00 in
14:44 88.9 °F 72.1 °F 29.97 in NNW 5.0 mph 8.0 mph 58 % 0.00 in
14:49 88.5 °F 71.4 °F 29.97 in East 1.0 mph 9.0 mph 57 % 0.00 in
14:51 88.5 °F 72.3 °F 29.97 in North 1.0 mph 9.0 mph 59 % 0.00 in
14:56 88.9 °F 72.1 °F 29.97 in SSE 1.0 mph 9.0 mph 58 % 0.00 in
15:02 89.1 °F 72.3 °F 29.97 in NNW 3.0 mph 9.0 mph 58 % 0.00 in
15:07 88.3 °F 72.1 °F 29.97 in Calm   7.0 mph 59 % 0.00 in
15:12 88.2 °F 73.4 °F 29.96 in NE 3.0 mph 7.0 mph 62 % 0.00 in
15:17 88.9 °F 72.7 °F 29.96 in NNW 8.0 mph 8.0 mph 59 % 0.00 in
15:22 88.5 °F 72.3 °F 29.96 in West 2.0 mph 13.0 mph 59 % 0.00 in
15:27 88.5 °F 72.3 °F 29.96 in ENE 5.0 mph 13.0 mph 59 % 0.00 in
15:32 89.1 °F 72.3 °F 29.96 in ENE 1.0 mph 13.0 mph 58 % 0.00 in
15:37 89.2 °F 73.6 °F 29.96 in NNE 2.0 mph 8.0 mph 60 % 0.00 in
15:42 90.0 °F 72.7 °F 29.96 in East 2.0 mph 8.0 mph 57 % 0.00 in
15:47 90.0 °F 72.1 °F 29.96 in ENE 2.0 mph 8.0 mph 56 % 0.00 in
15:52 90.1 °F 72.9 °F 29.96 in NW 3.0 mph 7.0 mph 57 % 0.00 in
15:57 90.0 °F 73.2 °F 29.95 in ENE 2.0 mph 7.0 mph 58 % 0.00 in
16:07 89.6 °F 72.3 °F 29.95 in SE 1.0 mph 7.0 mph 57 % 0.00 in
16:12 89.8 °F 73.6 °F 29.95 in North 3.0 mph 7.0 mph 59 % 0.00 in
16:17 89.8 °F 72.5 °F 29.95 in NNW 5.0 mph 9.0 mph 57 % 0.00 in
16:22 89.2 °F 72.0 °F 29.95 in WNW 4.0 mph 10.0 mph 57 % 0.00 in
16:27 89.4 °F 72.1 °F 29.95 in NNE 3.0 mph 10.0 mph 57 % 0.00 in
16:32 89.8 °F 72.5 °F 29.95 in ENE 2.0 mph 10.0 mph 57 % 0.00 in
16:37 90.0 °F 73.2 °F 29.95 in NW 6.0 mph 8.0 mph 58 % 0.00 in
16:42 90.1 °F 73.4 °F 29.95 in ENE 1.0 mph 7.0 mph 58 % 0.00 in
16:47 90.1 °F 73.4 °F 29.95 in WNW 2.0 mph 12.0 mph 58 % 0.00 in
16:52 89.4 °F 72.1 °F 29.95 in SE 2.0 mph 12.0 mph 57 % 0.00 in
16:57 88.9 °F 71.6 °F 29.95 in ENE 1.0 mph 12.0 mph 57 % 0.00 in
17:02 89.1 °F 72.3 °F 29.95 in ENE 3.0 mph 9.0 mph 58 % 0.00 in
17:07 89.2 °F 73.0 °F 29.95 in North 5.0 mph 8.0 mph 59 % 0.00 in
17:12 89.1 °F 73.9 °F 29.96 in NW 2.0 mph 8.0 mph 61 % 0.00 in
17:17 88.9 °F 73.2 °F 29.96 in NNW 5.0 mph 10.0 mph 60 % 0.00 in
17:22 88.3 °F 72.7 °F 29.96 in NNW 6.0 mph 10.0 mph 60 % 0.00 in
17:27 88.2 °F 72.5 °F 29.96 in NNW 3.0 mph 10.0 mph 60 % 0.00 in
17:32 88.2 °F 73.0 °F 29.96 in East 2.0 mph 10.0 mph 61 % 0.00 in
17:37 88.0 °F 73.4 °F 29.96 in NNE 5.0 mph 10.0 mph 62 % 0.00 in
17:42 88.0 °F 72.9 °F 29.96 in WNW 4.0 mph 7.0 mph 61 % 0.00 in
17:47 87.4 °F 72.9 °F 29.96 in NNW 3.0 mph 9.0 mph 62 % 0.00 in
17:52 87.3 °F 73.0 °F 29.96 in NE 6.0 mph 11.0 mph 63 % 0.00 in
17:57 87.1 °F 72.9 °F 29.96 in NW 1.0 mph 11.0 mph 63 % 0.00 in
18:02 87.1 °F 72.9 °F 29.96 in WNW 1.0 mph 11.0 mph 63 % 0.00 in
18:07 86.9 °F 73.2 °F 29.96 in WNW 2.0 mph 7.0 mph 64 % 0.00 in
18:12 86.7 °F 73.0 °F 29.96 in NNW 2.0 mph 7.0 mph 64 % 0.00 in
18:17 86.4 °F 73.2 °F 29.96 in NNW 3.0 mph 7.0 mph 65 % 0.00 in
18:22 86.2 °F 73.4 °F 29.97 in NW 3.0 mph 8.0 mph 66 % 0.00 in
18:27 85.8 °F 73.2 °F 29.97 in NE 2.0 mph 8.0 mph 66 % 0.00 in
18:32 85.5 °F 73.2 °F 29.97 in NW 4.0 mph 8.0 mph 67 % 0.00 in
18:37 84.9 °F 72.7 °F 29.97 in NNW 1.0 mph 7.0 mph 67 % 0.00 in
18:42 84.7 °F 73.0 °F 29.97 in NNW 1.0 mph 7.0 mph 68 % 0.00 in
18:47 84.6 °F 73.2 °F 29.97 in Calm   7.0 mph 69 % 0.00 in
18:52 84.0 °F 72.7 °F 29.97 in SSW 1.0 mph 4.0 mph 69 % 0.00 in
18:57 83.8 °F 73.0 °F 29.97 in NW 3.0 mph 5.0 mph 70 % 0.00 in
19:02 83.7 °F 72.9 °F 29.97 in NE 2.0 mph 6.0 mph 70 % 0.00 in
19:07 83.5 °F 72.7 °F 29.97 in Calm   6.0 mph 70 % 0.00 in
19:12 83.1 °F 72.7 °F 29.97 in North 2.0 mph 6.0 mph 71 % 0.00 in
19:17 82.9 °F 72.5 °F 29.98 in Calm   5.0 mph 71 % 0.00 in
19:22 82.8 °F 72.9 °F 29.98 in NNW 1.0 mph 4.0 mph 72 % 0.00 in
19:27 82.6 °F 72.7 °F 29.98 in NNW 1.0 mph 5.0 mph 72 % 0.00 in
19:32 82.6 °F 72.7 °F 29.98 in NW 1.0 mph 5.0 mph 72 % 0.00 in
19:37 82.2 °F 72.7 °F 29.98 in NW 2.0 mph 5.0 mph 73 % 0.00 in
19:42 82.0 °F 72.5 °F 29.98 in NW 3.0 mph 5.0 mph 73 % 0.00 in
19:48 81.9 °F 72.3 °F 29.98 in North 3.0 mph 5.0 mph 73 % 0.00 in
19:53 81.7 °F 72.1 °F 29.98 in NNW 2.0 mph 5.0 mph 73 % 0.00 in
19:58 81.7 °F 72.1 °F 29.98 in Calm   5.0 mph 73 % 0.00 in
20:03 81.5 °F 72.0 °F 29.98 in Calm   5.0 mph 73 % 0.00 in
20:08 81.5 °F 72.0 °F 29.98 in Calm   5.0 mph 73 % 0.00 in
20:13 81.3 °F 71.8 °F 29.98 in NNW 3.0 mph 6.0 mph 73 % 0.00 in
20:18 81.1 °F 71.6 °F 29.98 in NNW 1.0 mph 6.0 mph 73 % 0.00 in
20:23 81.1 °F 71.6 °F 29.99 in NW 1.0 mph 6.0 mph 73 % 0.00 in
20:28 81.0 °F 71.4 °F 29.99 in NNW 2.0 mph 5.0 mph 73 % 0.00 in
20:33 81.0 °F 71.4 °F 29.99 in NW 2.0 mph 6.0 mph 73 % 0.00 in
20:38 81.0 °F 71.4 °F 29.99 in NW 2.0 mph 6.0 mph 73 % 0.00 in
20:43 80.8 °F 70.9 °F 29.99 in NNW 1.0 mph 6.0 mph 72 % 0.00 in
20:48 80.8 °F 70.9 °F 29.99 in Calm   5.0 mph 72 % 0.00 in
20:53 80.6 °F 70.7 °F 29.99 in North 2.0 mph 5.0 mph 72 % 0.00 in
20:58 80.4 °F 70.5 °F 30.00 in NW 4.0 mph 5.0 mph 72 % 0.00 in
21:03 80.2 °F 70.3 °F 30.00 in WNW 3.0 mph 5.0 mph 72 % 0.00 in
21:08 80.2 °F 70.9 °F 30.00 in NNE 1.0 mph 7.0 mph 73 % 0.00 in
21:13 80.1 °F 70.7 °F 30.00 in North 2.0 mph 9.0 mph 73 % 0.00 in
21:18 79.9 °F 70.5 °F 30.00 in North 1.0 mph 9.0 mph 73 % 0.00 in
21:23 79.9 °F 70.5 °F 30.00 in Calm   9.0 mph 73 % 0.00 in
21:28 79.7 °F 70.3 °F 30.01 in NW 2.0 mph 5.0 mph 73 % 0.00 in
21:33 79.5 °F 70.2 °F 30.01 in NNW 2.0 mph 7.0 mph 73 % 0.00 in
21:38 79.5 °F 70.2 °F 30.01 in NNW 1.0 mph 7.0 mph 73 % 0.00 in
21:43 79.3 °F 70.0 °F 30.01 in NNW 1.0 mph 7.0 mph 73 % 0.00 in
21:48 79.3 °F 70.0 °F 30.02 in NW 1.0 mph 5.0 mph 73 % 0.00 in
21:53 79.2 °F 69.8 °F 30.02 in NNW 2.0 mph 5.0 mph 73 % 0.00 in
21:58 79.2 °F 69.8 °F 30.02 in NE 1.0 mph 6.0 mph 73 % 0.00 in
22:03 79.2 °F 69.8 °F 30.02 in ENE 6.0 mph 6.0 mph 73 % 0.00 in
22:08 79.0 °F 69.6 °F 30.02 in NW 1.0 mph 7.0 mph 73 % 0.00 in
22:13 78.8 °F 69.4 °F 30.03 in NNW 3.0 mph 7.0 mph 73 % 0.00 in
22:18 78.8 °F 69.4 °F 30.03 in Calm   8.0 mph 73 % 0.00 in
22:23 78.6 °F 69.3 °F 30.03 in Calm   8.0 mph 73 % 0.00 in
22:28 78.4 °F 69.1 °F 30.03 in WNW 1.0 mph 8.0 mph 73 % 0.00 in
22:33 78.3 °F 68.9 °F 30.04 in NNW 2.0 mph 6.0 mph 73 % 0.00 in
22:38 78.3 °F 68.5 °F 30.03 in NE 1.0 mph 6.0 mph 72 % 0.00 in
22:43 78.1 °F 68.7 °F 30.04 in NNE 3.0 mph 8.0 mph 73 % 0.00 in
22:48 77.9 °F 68.5 °F 30.04 in NNE 1.0 mph 8.0 mph 73 % 0.00 in
22:53 77.7 °F 68.4 °F 30.04 in East 1.0 mph 8.0 mph 73 % 0.00 in
22:58 77.5 °F 68.2 °F 30.03 in NNW 1.0 mph 7.0 mph 73 % 0.00 in
23:03 77.5 °F 68.5 °F 30.03 in ENE 2.0 mph 7.0 mph 74 % 0.00 in
23:08 77.4 °F 68.4 °F 30.03 in North 1.0 mph 7.0 mph 74 % 0.00 in
23:13 77.2 °F 68.2 °F 30.03 in WNW 1.0 mph 5.0 mph 74 % 0.00 in
23:18 77.0 °F 68.0 °F 30.03 in Calm   6.0 mph 74 % 0.00 in
23:23 76.8 °F 67.5 °F 30.03 in NNW 1.0 mph 6.0 mph 73 % 0.00 in
23:28 76.8 °F 67.5 °F 30.03 in NE 1.0 mph 6.0 mph 73 % 0.00 in
23:33 76.6 °F 67.3 °F 30.03 in East 1.0 mph 9.0 mph 73 % 0.00 in
23:38 76.6 °F 67.3 °F 30.03 in ENE 2.0 mph 9.0 mph 73 % 0.00 in
23:48 76.3 °F 66.9 °F 30.03 in ENE 1.0 mph 5.0 mph 73 % 0.00 in
23:53 76.3 °F 66.6 °F 30.03 in Calm   5.0 mph 72 % 0.00 in
23:58 76.3 °F 66.6 °F 30.03 in East 1.0 mph 6.0 mph 72 % 0.00 in
Spring, Texas: Villages of Bridgestone
Compliments of Weather Underground - 2.75 mb

Script developed by  Jim McMurry - jmcmurry@mwt.net Adapted for the template by  Wim van der Kuil - Leuven-Template.eu

You find our weather info also at:

UK Metoffice

WeatherCloud

Weather Underground

Mid-South Weather Network

AWEKAS

Citizen Weather Observer Program (CWOP)

HAMweather, WeatherForYou, PWS Weather

Equipment we use:

Weather-station
Davis Vantage Vue

Weather-program
Meteohub

Weather-server
Debian 7.9 x86 (Guest)

Provider
DreamHost

Davis Vantage Vue

Meteohub

Debian 7.9 x86 (Guest)

DreamHost